Meath Environmental Platform

Observations for Trim Market St

Time AQI Temp °C Hum % Pres Pa CO μg/m³ H₂S μg/m³ NO μg/m³ NO₂ μg/m³ O₃ μg/m³ SO₂ μg/m³ PM1 μg/m³ PM2.5 μg/m³ PM10 μg/m³
Friday 14 August 2026
04:17 2 22.5 74 36,862 0 0 1.19 3.59 51.64 0 0 0.95 2.7
04:16 2 22.5 74 36,766 0 0 1.2 8.67 53.83 0 0 0.96 2.69
04:15 2 22.5 74 36,726 0 0 1.25 3.22 48.65 0 0 1.43 3.3
04:12 2 22.5 74 36,336 0 0 1.26 6.33 52.63 0 0 0.95 2.7
04:10 2 22.5 74 36,206 0 0 1.27 3.25 50.11 0 0.71 1.91 3.91
04:06 2 22.5 74 35,471 0 0 1.26 5.86 54.07 0 0 1.43 3.31
04:04 2 22.5 74 35,661 0 0 1.27 8.42 52.92 0 0 1.43 3.3
03:58 2 22.6 74 35,252 0 0 1.28 13.87 49.95 0 0 1.43 3.3
03:56 2 22.6 74 34,856 0 0 1.29 9.13 51.66 0 1.43 1.91 3.91
03:36 2 22.7 73 38,383 0 0 1.19 10.84 51 0 0 1.46 3.27
03:35 2 22.7 73 38,869 0 0 1.19 7.8 51.83 0 0 1.94 3.88
03:34 2 22.7 73 39,320 0 0 1.19 3.46 50.55 0 0.71 1.95 3.88
03:33 2 22.7 73 39,779 0 0 1.19 8.06 53.2 0 1.43 2.43 4.49
03:30 2 22.8 73 40,954 0 0 1.24 6.56 50.08 0 0.71 2.44 4.48
03:29 2 22.8 73 41,191 0 0 1.23 3.79 45.51 0 2.14 3.89 6.31
03:27 2 22.8 73 41,848 0 0 1.19 6.78 45.41 0 0.71 2.44 4.48
03:26 2 22.9 73 42,151 0 0 1.18 11.95 46.82 0 0.71 2.44 4.48
03:21 2 23 73 42,454 0 0 1.28 8.23 42.7 0 0.71 1.97 3.86
03:20 2 23 72 42,287 0 0 1.27 12.72 50.7 0 2.14 2.94 5.69
03:18 2 23.1 73 41,850 0 0 1.2 5.15 50.47 0 0.71 2.44 4.48